Home
 
Morpeth (BP) AWS
Home
Latest Observations
 
Search
 
 
Information
  • Contact
  • Copyright Notice
  • Disclaimer
  • Morpeth (Berry Park), NSW
    Automatic Weather Station
    Latitude: 32°44'SLongitude: 151°40'EElevation: 8.0m

    Last update 10:03am local on Sunday 17 January 2021

    Date/Time
    EST
    Temp Dew
    Point
    Rel
    Hum
    Max
    Temp
    MaxT
    Time
    Min
    Temp
    MinT
    Time
    Wind Max Wind Gust Rain
    since 9am
    Wind Dir Speed Gust Max
    Dir
    Max Max
    Time
    °C °C % °C   °C   kts kts kts mm
    17-Jan 10:00 23.2 8.1 38 23.2 09:57 21.0 09:00 0.0
    17-Jan 09:00 21.0 10.7 52 27.7 15:41 10.5 05:04 0.0
    17-Jan 08:00 17.2 12.1 72 27.7 15:41 10.5 05:04 0.0
    17-Jan 07:00 13.5 10.8 84 27.7 15:41 10.5 05:04 0.0
    17-Jan 06:00 11.9 10.1 89 27.7 15:41 10.5 05:04 0.0
    17-Jan 05:00 10.6 9.1 91 27.7 15:41 10.6 05:00 0.0
    17-Jan 04:00 10.7 9.4 91 27.7 15:41 10.7 04:00 0.0
    17-Jan 03:00 11.4 10.2 92 27.7 15:41 11.2 02:55 0.0
    17-Jan 02:00 12.7 11.1 90 27.7 15:41 12.7 02:00 0.0
    17-Jan 01:00 14.0 11.1 83 27.7 15:41 13.9 01:00 0.0
    17-Jan 00:00 16.4 11.0 71 27.7 15:41 16.3 23:35 0.0
    16-Jan 23:00 16.8 11.1 69 27.7 15:41 16.5 22:29 0.0
    16-Jan 22:00 17.2 11.0 67 27.7 15:41 17.1 21:59 0.0
    16-Jan 21:00 17.8 10.9 64 27.7 15:41 17.7 21:00 0.0
    16-Jan 20:00 19.4 10.3 56 27.7 15:41 19.3 20:00 0.0
    16-Jan 19:00 22.9 9.1 42 27.7 15:41 20.6 09:00 0.0
    16-Jan 18:00 25.2 9.1 36 27.7 15:41 20.6 09:00 0.0
    16-Jan 17:00 27.1 7.9 30 27.7 15:41 20.6 09:00 0.0
    16-Jan 16:00 27.1 8.9 32 27.7 15:41 20.6 09:00 0.0
    16-Jan 15:00 27.1 5.2 25 27.3 14:43 20.6 09:00 0.0
    16-Jan 14:00 26.2 3.3 23 26.4 13:46 20.6 09:00 0.0
    16-Jan 13:00 25.5 3.0 24 25.8 12:56 20.6 09:00 0.0
    16-Jan 12:00 24.6 2.6 24 24.6 12:00 20.6 09:00 0.0
    16-Jan 11:00 23.9 4.5 29 24.0 10:56 20.6 09:00 0.0
    16-Jan 10:00 22.7 5.1 32 22.7 10:00 20.6 09:00 0.0
    16-Jan 09:00 20.7 3.1 32 30.8 15:01 15.0 05:39 0.2
    16-Jan 08:00 19.1 5.4 41 30.8 15:01 15.0 05:39 0.2
    16-Jan 07:00 17.3 2.8 38 30.8 15:01 15.0 05:39 0.2
    16-Jan 06:00 16.0 5.2 49 30.8 15:01 15.0 05:39 0.2
    16-Jan 05:00 16.2 6.6 53 30.8 15:01 16.2 04:59 0.2
    16-Jan 04:00 18.7 5.6 42 30.8 15:01 18.1 03:50 0.2
    16-Jan 03:00 20.5 4.4 35 30.8 15:01 18.5 23:49 0.2
    16-Jan 02:00 21.9 6.4 37 30.8 15:01 18.5 23:49 0.2
    16-Jan 01:00 19.5 17.4 88 30.8 15:01 18.5 23:49 0.2
    16-Jan 00:00 18.8 16.9 89 30.8 15:01 18.5 23:49 0.2
    15-Jan 23:00 20.4 17.9 86 30.8 15:01 20.4 22:59 0.2
    15-Jan 22:00 22.8 18.5 77 30.8 15:01 22.7 22:00 0.2
    15-Jan 21:00 24.3 18.3 69 30.8 15:01 24.2 20:48 0.2
    15-Jan 20:00 25.6 19.6 70 30.8 15:01 24.8 09:22 0.2
    15-Jan 19:00 27.5 19.9 63 30.8 15:01 24.8 09:22 0.2
    15-Jan 18:00 28.1 20.9 65 30.8 15:01 24.8 09:22 0.2
    15-Jan 17:00 27.4 21.1 69 30.8 15:01 24.8 09:22 0.2
    15-Jan 16:00 29.2 21.3 62 30.8 15:01 24.8 09:22 0.2
    15-Jan 15:00 30.7 21.9 59 30.7 14:57 24.8 09:22 0.2
    15-Jan 14:00 28.7 20.3 61 29.7 13:38 24.8 09:22 0.2
    15-Jan 13:00 29.2 20.8 61 29.3 12:55 24.8 09:22 0.2
    15-Jan 12:00 28.5 20.5 62 28.9 11:30 24.8 09:22 0.2
    15-Jan 11:00 27.1 20.0 65 27.4 10:55 24.8 09:22 0.2
    15-Jan 10:00 25.0 19.5 71 25.7 09:00 24.8 09:22 0.0
    15-Jan 09:00 25.7 19.9 70 34.9 16:49 20.7 21:00 13.4
    15-Jan 08:00 23.2 19.4 79 34.9 16:49 20.7 21:00 13.4
    15-Jan 07:00 21.9 19.4 86 34.9 16:49 20.7 21:00 13.4
    15-Jan 06:00 21.4 19.0 86 34.9 16:49 20.7 21:00 13.4
    15-Jan 05:00 21.6 19.2 86 34.9 16:49 20.7 21:00 13.4
    15-Jan 04:00 21.9 19.2 85 34.9 16:49 20.7 21:00 13.4
    15-Jan 03:00 22.0 19.5 86 34.9 16:49 20.7 21:00 13.4
    15-Jan 02:00 21.9 19.8 88 34.9 16:49 20.7 21:00 13.4
    15-Jan 01:00 22.3 20.4 89 34.9 16:49 20.7 21:00 13.4
    15-Jan 00:00 22.3 20.2 88 34.9 16:49 20.7 21:00 13.4
    14-Jan 23:00 22.5 18.9 80 34.9 16:49 20.7 21:00 13.4
    14-Jan 22:00 24.0 17.5 67 34.9 16:49 20.7 21:00 13.4
    14-Jan 21:00 20.8 19.2 91 34.9 16:49 20.7 21:00 13.2
    14-Jan 20:00 28.7 21.0 63 34.9 16:49 21.6 09:05 0.0
    14-Jan 19:00 33.0 16.7 38 34.9 16:49 21.6 09:05 0.0
    14-Jan 18:00 34.2 16.6 35 34.9 16:49 21.6 09:05 0.0
    14-Jan 17:00 34.7 15.6 32 34.9 16:49 21.6 09:05 0.0
    14-Jan 16:00 34.3 17.9 38 34.5 15:57 21.6 09:05 0.0
    14-Jan 15:00 33.8 18.6 41 33.8 15:00 21.6 09:05 0.0
    14-Jan 14:00 31.1 17.6 45 31.5 13:37 21.6 09:05 0.0
    14-Jan 13:00 30.4 18.8 50 30.6 12:56 21.6 09:05 0.0
    14-Jan 12:00 28.9 19.7 58 28.9 11:59 21.6 09:05 0.0
    14-Jan 11:00 25.9 18.1 62 26.1 10:36 21.6 09:05 0.0

    Sunday, 17 January 2021
    © 2021 Tim Grugeon